Sacramento, California
Traffic Map
Current Weather Conditions
Sacramento, California
Clear
Clear
80°
Feels Like: 80°
Wind Chill: 80° Ceiling: Unl
Heat Index: 80° Visibility: 10mi
Dew Point: 51° Wind: 3mph
Humidity: 36% Direction: ° ()
Pressure: 29.79in Gusts: 0mph
Raw Report DataKSAC 240453Z AUTO VRB03KT 10SM CLR 27/11 A2979 RMK AO2 SLP087 T02670106
Traffic Incident Summary
Active as of:
Severity:
Category:
InformationThere was an issue retrieving the traffic information for this location. Please try a different location or try again shortly.
Advertisements
Track Severe Weather on mobile